Meteorología y climatología de Navarra
Datos de la estación - Meteo Navarra

Estación de Aoiz GN

Altitud 534 m.


Datos desde el 10/10/2019 hasta el 11/10/2019 en horario solar
Los datos son PROVISIONALES

Anterior Página 1 de 1 Siguiente Descargar: Formato para Excel 2000 o superior   Formato csv   Formato para OpenOffice Calc
Fecha Temperatura Humedad relativa Radiación global Insolación Precipitación Vel. viento 10 m Vel. viento 10 m Dir. viento 10 m
ºC % W/m² s l/m² m/s km/h º
10/10/2019 0:00 10.7 78 0.0 0 0.0 0.7 2.7 36
10/10/2019 0:10 9.8 82 0.0 0 0.0 0.3 1.0 121
10/10/2019 0:20 10.0 82 0.0 0 0.0 0.4 1.3 113
10/10/2019 0:30 10.4 82 0.0 0 0.0 0.8 2.9 6
10/10/2019 0:40 11.0 80 0.0 0 0.0 1.6 5.7 326
10/10/2019 0:50 10.4 80 0.0 0 0.0 0.9 3.3 199
10/10/2019 1:00 9.3 84 0.0 0 0.0 0.2 0.6 160
10/10/2019 1:10 9.0 85 0.0 0 0.0 0.4 1.4 95
10/10/2019 1:20 9.0 85 0.0 0 0.0 0.1 0.3 84
10/10/2019 1:30 9.1 86 0.0 0 0.0 1.3 4.8 16
10/10/2019 1:40 9.6 86 0.0 0 0.0 1.8 6.4 7
10/10/2019 1:50 9.6 86 0.0 0 0.0 1.0 3.5 0
10/10/2019 2:00 8.6 87 0.0 0 0.0 0.2 0.6 31
10/10/2019 2:10 8.5 89 0.0 0 0.0 0.4 1.5 27
10/10/2019 2:20 9.0 90 0.0 0 0.0 1.4 5.0 2
10/10/2019 2:30 8.9 87 0.0 0 0.0 0.3 0.9 354
10/10/2019 2:40 8.5 88 0.0 0 0.0 0.0 0.0 15
10/10/2019 2:50 8.3 89 0.0 0 0.0 0.6 2.0 59
10/10/2019 3:00 8.2 91 0.0 0 0.0 0.3 1.0 68
10/10/2019 3:10 8.3 91 0.0 0 0.0 0.2 0.8 55
10/10/2019 3:20 8.3 91 0.0 0 0.0 0.3 1.1 55
10/10/2019 3:30 8.9 92 0.0 0 0.0 1.7 6.0 7
10/10/2019 3:40 9.7 91 0.0 0 0.0 1.9 6.9 345
10/10/2019 3:50 9.9 88 0.0 0 0.0 2.1 7.4 324
10/10/2019 4:00 10.0 86 0.0 0 0.0 1.4 5.0 334
10/10/2019 4:10 9.9 87 0.0 0 0.0 1.0 3.6 14
10/10/2019 4:20 10.2 83 0.0 0 0.0 1.1 4.0 6
10/10/2019 4:30 9.6 84 0.0 0 0.0 0.4 1.5 55
10/10/2019 4:40 10.3 82 0.0 0 0.0 1.5 5.3 331
10/10/2019 4:50 10.8 79 0.0 0 0.0 1.0 3.4 309
10/10/2019 5:00 9.4 83 0.0 0 0.0 0.2 0.7 306
10/10/2019 5:10 8.3 88 0.0 0 0.0 0.2 0.8 51
10/10/2019 5:20 8.2 89 0.0 0 0.0 0.5 1.8 146
10/10/2019 5:30 8.7 87 0.0 0 0.0 1.1 3.9 319
10/10/2019 5:40 8.3 87 0.0 0 0.0 0.3 1.2 50
10/10/2019 5:50 8.2 88 0.0 0 0.0 0.4 1.5 166
10/10/2019 6:00 8.0 88 0.0 0 0.0 0.7 2.4 81
10/10/2019 6:10 8.0 89 0.0 0 0.0 0.5 1.8 80
10/10/2019 6:20 7.5 89 0.0 0 0.0 0.9 3.3 48
10/10/2019 6:30 7.4 90 1.4 0 0.0 1.4 5.1 44
10/10/2019 6:40 8.0 88 17.9 0 0.0 1.1 3.9 53
10/10/2019 6:50 8.1 87 24.5 0 0.0 0.1 0.4 59
10/10/2019 7:00 8.1 88 57.6 252 0.0 0.5 1.8 56
10/10/2019 7:10 9.5 85 116.5 600 0.0 0.4 1.5 53
10/10/2019 7:20 11.4 76 146.1 600 0.0 0.5 1.9 9
10/10/2019 7:30 12.2 72 176.5 600 0.0 1.3 4.7 287
10/10/2019 7:40 12.3 70 208.0 600 0.0 1.0 3.5 211
10/10/2019 7:50 11.8 74 238.4 600 0.0 1.0 3.7 141
10/10/2019 8:00 12.2 72 269.8 600 0.0 1.0 3.7 154
10/10/2019 8:10 13.3 69 299.9 600 0.0 0.9 3.3 151
10/10/2019 8:20 13.3 68 331.4 600 0.0 2.0 7.3 149
10/10/2019 8:30 13.6 69 362.5 600 0.0 1.8 6.4 156
10/10/2019 8:40 14.3 66 391.6 600 0.0 1.8 6.3 153
10/10/2019 8:50 14.4 65 419.8 600 0.0 2.2 7.8 147
10/10/2019 9:00 14.8 63 447.7 600 0.0 1.9 6.9 149
10/10/2019 9:10 15.1 62 473.6 600 0.0 1.7 6.0 160
10/10/2019 9:20 16.0 59 496.8 600 0.0 1.4 4.9 158
10/10/2019 9:30 16.4 57 521.8 600 0.0 1.5 5.5 130
10/10/2019 9:40 16.4 56 543.9 600 0.0 1.8 6.6 185
10/10/2019 9:50 16.2 56 566.4 600 0.0 2.1 7.4 187
10/10/2019 10:00 16.9 54 584.2 600 0.0 1.6 5.7 188
10/10/2019 10:10 17.4 52 603.5 600 0.0 1.9 6.9 155
10/10/2019 10:20 17.8 50 618.7 600 0.0 1.4 5.2 190
10/10/2019 10:30 17.6 50 630.6 600 0.0 1.5 5.2 195
10/10/2019 10:40 18.0 49 646.8 600 0.0 1.6 5.9 184
10/10/2019 10:50 18.6 47 660.4 600 0.0 1.9 6.8 231
10/10/2019 11:00 18.5 47 668.4 600 0.0 1.4 5.0 222
10/10/2019 11:10 18.7 46 678.4 600 0.0 2.7 9.9 218
10/10/2019 11:20 19.1 46 683.7 600 0.0 2.0 7.1 233
10/10/2019 11:30 19.0 46 689.0 600 0.0 2.2 7.8 201
10/10/2019 11:40 19.6 45 690.9 600 0.0 2.6 9.2 227
10/10/2019 11:50 19.7 44 695.1 600 0.0 2.3 8.2 215
10/10/2019 12:00 19.9 44 693.2 600 0.0 2.6 9.3 249
10/10/2019 12:10 20.1 44 691.9 600 0.0 3.8 13.8 265
10/10/2019 12:20 20.3 43 689.2 600 0.0 3.0 10.7 244
10/10/2019 12:30 20.6 42 684.6 600 0.0 2.6 9.5 227
10/10/2019 12:40 20.5 42 677.8 600 0.0 3.0 10.6 253
10/10/2019 12:50 20.8 42 668.8 600 0.0 2.8 10.0 232
10/10/2019 13:00 20.6 42 658.4 600 0.0 1.7 6.2 211
10/10/2019 13:10 20.7 41 648.9 600 0.0 3.4 12.1 226
10/10/2019 13:20 20.8 41 635.1 600 0.0 2.8 10.0 208
10/10/2019 13:30 20.9 40 616.7 600 0.0 2.1 7.7 228
10/10/2019 13:40 21.4 39 606.8 600 0.0 2.7 9.6 253
10/10/2019 13:50 21.4 39 592.0 600 0.0 2.8 10.1 221
10/10/2019 14:00 21.5 39 562.0 600 0.0 1.7 6.0 211
10/10/2019 14:10 21.9 38 541.8 600 0.0 1.7 6.0 207
10/10/2019 14:20 21.9 37 528.2 600 0.0 2.0 7.1 224
10/10/2019 14:30 21.9 37 505.5 600 0.0 2.3 8.2 227
10/10/2019 14:40 22.2 37 479.5 600 0.0 1.5 5.3 200
10/10/2019 14:50 22.4 36 453.6 600 0.0 1.9 6.8 230
10/10/2019 15:00 22.4 36 428.6 600 0.0 3.0 10.9 237
10/10/2019 15:10 22.4 36 400.6 600 0.0 2.0 7.1 255
10/10/2019 15:20 22.2 36 371.5 600 0.0 2.4 8.7 215
10/10/2019 15:30 22.2 36 342.6 600 0.0 1.3 4.6 202
10/10/2019 15:40 22.3 35 313.0 600 0.0 2.1 7.7 218
10/10/2019 15:50 22.2 36 282.9 600 0.0 2.0 7.1 228
10/10/2019 16:00 22.1 36 250.8 600 0.0 2.6 9.3 242
10/10/2019 16:10 21.8 37 220.1 600 0.0 2.0 7.2 211
10/10/2019 16:20 22.1 36 188.8 600 0.0 2.7 9.6 256
10/10/2019 16:30 22.1 36 157.2 600 0.0 1.9 6.7 255
10/10/2019 16:40 22.0 38 127.1 600 0.0 1.5 5.5 287
10/10/2019 16:50 20.2 47 98.3 600 0.0 2.1 7.7 355
10/10/2019 17:00 19.5 50 71.7 600 0.0 2.6 9.5 3
10/10/2019 17:10 18.8 53 47.6 600 0.0 3.1 11.1 17
10/10/2019 17:20 18.3 55 14.0 128 0.0 3.4 12.3 11
10/10/2019 17:30 18.0 57 0.0 0 0.0 3.6 12.9 4
10/10/2019 17:40 17.7 58 0.0 0 0.0 3.7 13.3 8
10/10/2019 17:50 17.3 60 0.0 0 0.0 3.6 13.0 7
10/10/2019 18:00 17.1 61 0.0 0 0.0 4.2 15.2 12
10/10/2019 18:10 16.8 63 0.0 0 0.0 3.9 13.9 5
10/10/2019 18:20 16.5 64 0.0 0 0.0 3.8 13.5 9
10/10/2019 18:30 16.3 65 0.0 0 0.0 3.4 12.3 1
10/10/2019 18:40 16.1 65 0.0 0 0.0 3.2 11.6 356
10/10/2019 18:50 16.0 66 0.0 0 0.0 3.7 13.3 0
10/10/2019 19:00 15.7 67 0.0 0 0.0 3.7 13.4 3
10/10/2019 19:10 15.4 68 0.0 0 0.0 3.0 10.8 355
10/10/2019 19:20 15.1 69 0.0 0 0.0 2.9 10.3 358
10/10/2019 19:30 14.9 70 0.0 0 0.0 1.8 6.3 357
10/10/2019 19:40 14.7 71 0.0 0 0.0 1.2 4.4 344
10/10/2019 19:50 14.5 71 0.0 0 0.0 1.9 6.7 4
10/10/2019 20:00 14.3 72 0.0 0 0.0 2.9 10.3 6
10/10/2019 20:10 14.2 72 0.0 0 0.0 2.7 9.8 4
10/10/2019 20:20 13.9 73 0.0 0 0.0 1.8 6.3 6
10/10/2019 20:30 13.7 74 0.0 0 0.0 0.9 3.2 9
10/10/2019 20:40 13.4 75 0.0 0 0.0 1.9 6.8 8
10/10/2019 20:50 13.3 76 0.0 0 0.0 2.0 7.2 6
10/10/2019 21:00 13.0 76 0.0 0 0.0 2.1 7.5 7
10/10/2019 21:10 12.9 78 0.0 0 0.0 1.9 6.8 9
10/10/2019 21:20 12.7 78 0.0 0 0.0 2.1 7.5 7
10/10/2019 21:30 12.5 78 0.0 0 0.0 2.5 9.1 10
10/10/2019 21:40 12.4 80 0.0 0 0.0 1.8 6.4 13
10/10/2019 21:50 12.2 80 0.0 0 0.0 1.3 4.8 360
10/10/2019 22:00 12.1 81 0.0 0 0.0 1.5 5.5 4
10/10/2019 22:10 12.0 81 0.0 0 0.0 1.1 4.0 345
10/10/2019 22:20 11.9 81 0.0 0 0.0 1.2 4.3 355
10/10/2019 22:30 11.8 81 0.0 0 0.0 2.3 8.2 17
10/10/2019 22:40 11.8 81 0.0 0 0.0 1.7 6.0 348
10/10/2019 22:50 11.6 79 0.0 0 0.0 0.1 0.2 7
10/10/2019 23:00 11.2 82 0.0 0 0.0 1.3 4.6 359
10/10/2019 23:10 11.2 83 0.0 0 0.0 0.9 3.1 17
10/10/2019 23:20 11.0 83 0.0 0 0.0 1.1 4.0 14
10/10/2019 23:30 11.0 83 0.0 0 0.0 1.8 6.4 19
10/10/2019 23:40 10.9 83 0.0 0 0.0 0.9 3.3 41
10/10/2019 23:50 10.7 84 0.0 0 0.0 1.3 4.6 33
Anterior Página 1 de 1 Siguiente

NOTA: Tipo de datos según el color:
   - Valores diarios o 10 minutos correctos
   - Valores diarios calculados a partir de un número de datos 10 minutos menor que 144 y mayor que 120, o de un número de datos semihorarios menor que 48 y mayor que 40 (caso de las estaciones de Riegos de Navarra y del MARM)
   - Valores diez minutos estimados


Contacto        Enlaces        Aviso legal